If you wish to contribute or participate in the discussions about articles you are invited to join SKYbrary as a registered user

 Actions

Orléans-Saint-Denis-de-l'Hôtel Airport

From SKYbrary Wiki

LFOZ
Airport
ICAO: LFOZ
Summary
Name Orléans-Saint-Denis-de-l'Hôtel Airport
Region Europe
Territory France FR.gif
Location , Centre
Serving Orleans
Elevation 120.701 m
396 ft
396 ft120.701 m
Type small airport
Coordinates 47° 53' 49.01" N, 2° 9' 48.00" E
Runways
Designator Length Width Surface ROPS
5/23 1392 m4,566.929 ft
30 m98.425 ft
ASP /


METAR
Observation LFOZ 171730Z AUTO 18006KT 9999 BKN013 14/13 Q1011
Station Orléans - Saint-Denis-de-l'Hôtel
Date/Time 17 October 2019 17:30:00
Wind direction 180°
Wind speed 06 kts
Lowest cloud amount broken clouds
Temperature 14°C
Dew point 13°C
Humidity 93%
QNH 1011 hPa
Weather condition n/a